TimeCAT,TemperatureF,Dew PointF,Humidity,Sea Level PressureIn,VisibilityMPH,Wind Direction,Wind SpeedMPH,Gust SpeedMPH,PrecipitationIn,Events,Conditions,WindDirDegrees,DateUTC
12:00 AM,75.2,55.4,50,29.98,-9999.0,NNE,6.9,-,N/A,,Clear,20,2013-02-17 22:00:00
1:00 AM,73.4,55.4,53,29.98,-9999.0,NE,10.4,-,N/A,,Clear,50,2013-02-17 23:00:00
2:00 AM,69.8,57.2,64,29.98,-9999.0,ENE,6.9,-,N/A,,Clear,60,2013-02-18 00:00:00
3:00 AM,69.8,57.2,64,30.01,-9999.0,East,4.6,-,N/A,,Clear,90,2013-02-18 01:00:00
4:00 AM,68.0,59.0,73,30.01,-9999.0,ESE,4.6,-,N/A,,Clear,120,2013-02-18 02:00:00
5:00 AM,66.2,59.0,78,30.01,-9999.0,SE,5.8,-,N/A,,Clear,140,2013-02-18 03:00:00
6:00 AM,66.2,59.0,78,30.01,-9999.0,ESE,3.5,-,N/A,,Clear,120,2013-02-18 04:00:00
7:00 AM,66.2,59.0,78,30.04,-9999.0,SE,5.8,-,N/A,,Clear,130,2013-02-18 05:00:00
8:00 AM,71.6,57.2,60,30.04,-9999.0,ENE,6.9,-,N/A,,Clear,70,2013-02-18 06:00:00
10:00 AM,78.8,57.2,47,30.04,-9999.0,NNE,6.9,-,N/A,,Clear,20,2013-02-18 08:00:00
11:00 AM,82.4,57.2,42,30.04,-9999.0,Variable,4.6,-,N/A,,Clear,0,2013-02-18 09:00:00
12:00 PM,86.0,53.6,33,29.98,6.2,Variable,3.5,-,N/A,,Partly Cloudy,0,2013-02-18 10:00:00
1:00 PM,86.0,53.6,33,29.98,6.2,Variable,3.5,-,N/A,,Partly Cloudy,0,2013-02-18 11:00:00
2:00 PM,89.6,53.6,29,29.92,6.2,Variable,5.8,-,N/A,,Partly Cloudy,0,2013-02-18 12:00:00
3:00 PM,91.4,53.6,28,29.89,6.2,Variable,3.5,-,N/A,,Partly Cloudy,0,2013-02-18 13:00:00
4:00 PM,89.6,51.8,27,29.89,6.2,Variable,3.5,-,N/A,,Partly Cloudy,0,2013-02-18 14:00:00
5:00 PM,91.4,51.8,26,29.86,6.2,Variable,2.3,-,N/A,,Partly Cloudy,0,2013-02-18 15:00:00
6:00 PM,89.6,51.8,27,29.86,6.2,SE,3.5,-,N/A,,Partly Cloudy,140,2013-02-18 16:00:00
7:00 PM,86.0,51.8,31,29.86,6.2,Variable,2.3,-,N/A,,Partly Cloudy,0,2013-02-18 17:00:00
8:00 PM,82.4,55.4,39,29.86,-9999.0,Variable,1.2,-,N/A,,Clear,0,2013-02-18 18:00:00
9:00 PM,82.4,57.2,42,29.89,-9999.0,East,2.3,-,N/A,,Clear,100,2013-02-18 19:00:00
10:00 PM,78.8,60.8,54,29.89,-9999.0,SE,3.5,-,N/A,,Clear,140,2013-02-18 20:00:00
11:00 PM,75.2,59.0,57,29.89,-9999.0,SE,6.9,-,N/A,,Clear,140,2013-02-18 21:00:00